sensor_id;sensor_type;location;lat;lon;timestamp;P1;durP1;ratioP1;P2;durP2;ratioP2
66179;SDS011;52986;44.028;20.466;2023-03-13T00:01:25;52.47;;;20.55;;
66179;SDS011;52986;44.028;20.466;2023-03-13T00:03:52;52.72;;;20.77;;
66179;SDS011;52986;44.028;20.466;2023-03-13T00:06:19;55.83;;;22.17;;
66179;SDS011;52986;44.028;20.466;2023-03-13T00:08:46;52.85;;;19.95;;
66179;SDS011;52986;44.028;20.466;2023-03-13T00:11:11;53.17;;;19.42;;
66179;SDS011;52986;44.028;20.466;2023-03-13T00:13:38;49.78;;;19.45;;
66179;SDS011;52986;44.028;20.466;2023-03-13T00:16:07;57.42;;;20.77;;
66179;SDS011;52986;44.028;20.466;2023-03-13T00:18:34;50.15;;;20.05;;
66179;SDS011;52986;44.028;20.466;2023-03-13T00:21:00;50.85;;;19.88;;
66179;SDS011;52986;44.028;20.466;2023-03-13T00:23:28;52.47;;;19.95;;
66179;SDS011;52986;44.028;20.466;2023-03-13T00:26:00;46.00;;;18.58;;
66179;SDS011;52986;44.028;20.466;2023-03-13T00:28:28;60.45;;;21.65;;
66179;SDS011;52986;44.028;20.466;2023-03-13T00:33:33;51.80;;;17.48;;
66179;SDS011;52986;44.028;20.466;2023-03-13T00:36:00;41.28;;;15.73;;
66179;SDS011;52986;44.028;20.466;2023-03-13T00:38:30;57.55;;;22.23;;
66179;SDS011;52986;44.028;20.466;2023-03-13T00:41:02;62.88;;;23.60;;
66179;SDS011;52986;44.028;20.466;2023-03-13T00:43:32;72.65;;;28.02;;
66179;SDS011;52986;44.028;20.466;2023-03-13T00:45:59;59.45;;;22.58;;
66179;SDS011;52986;44.028;20.466;2023-03-13T00:48:25;69.28;;;21.90;;
66179;SDS011;52986;44.028;20.466;2023-03-13T00:50:50;46.92;;;16.48;;
66179;SDS011;52986;44.028;20.466;2023-03-13T00:53:16;44.08;;;15.82;;
66179;SDS011;52986;44.028;20.466;2023-03-13T00:55:54;45.65;;;17.83;;
66179;SDS011;52986;44.028;20.466;2023-03-13T00:58:24;49.22;;;19.17;;
66179;SDS011;52986;44.028;20.466;2023-03-13T01:00:51;52.65;;;19.85;;
66179;SDS011;52986;44.028;20.466;2023-03-13T01:03:17;55.80;;;21.02;;
66179;SDS011;52986;44.028;20.466;2023-03-13T01:05:43;58.78;;;22.63;;
66179;SDS011;52986;44.028;20.466;2023-03-13T01:08:09;65.43;;;25.75;;
66179;SDS011;52986;44.028;20.466;2023-03-13T01:10:34;64.97;;;23.88;;
66179;SDS011;52986;44.028;20.466;2023-03-13T01:13:00;57.17;;;21.15;;
66179;SDS011;52986;44.028;20.466;2023-03-13T01:15:25;52.33;;;20.25;;
66179;SDS011;52986;44.028;20.466;2023-03-13T01:17:51;61.08;;;22.52;;
66179;SDS011;52986;44.028;20.466;2023-03-13T01:20:16;58.72;;;22.77;;
66179;SDS011;52986;44.028;20.466;2023-03-13T01:22:41;53.13;;;22.98;;
66179;SDS011;52986;44.028;20.466;2023-03-13T01:25:07;56.42;;;22.90;;
66179;SDS011;52986;44.028;20.466;2023-03-13T01:27:32;55.30;;;21.95;;
66179;SDS011;52986;44.028;20.466;2023-03-13T01:29:58;59.10;;;22.65;;
66179;SDS011;52986;44.028;20.466;2023-03-13T01:32:23;52.60;;;20.23;;
66179;SDS011;52986;44.028;20.466;2023-03-13T01:34:49;43.05;;;17.35;;
66179;SDS011;52986;44.028;20.466;2023-03-13T01:37:14;47.03;;;18.17;;
66179;SDS011;52986;44.028;20.466;2023-03-13T01:39:40;48.17;;;18.73;;
66179;SDS011;52986;44.028;20.466;2023-03-13T01:42:05;48.78;;;18.73;;
66179;SDS011;52986;44.028;20.466;2023-03-13T01:44:50;44.97;;;17.85;;
66179;SDS011;52986;44.028;20.466;2023-03-13T01:47:20;44.58;;;16.50;;
66179;SDS011;52986;44.028;20.466;2023-03-13T01:49:45;45.35;;;16.80;;
66179;SDS011;52986;44.028;20.466;2023-03-13T01:52:13;46.55;;;17.65;;
66179;SDS011;52986;44.028;20.466;2023-03-13T01:55:02;45.50;;;18.40;;
66179;SDS011;52986;44.028;20.466;2023-03-13T01:57:34;48.95;;;18.73;;
66179;SDS011;52986;44.028;20.466;2023-03-13T02:00:07;52.40;;;21.20;;
66179;SDS011;52986;44.028;20.466;2023-03-13T02:02:36;56.53;;;21.38;;
66179;SDS011;52986;44.028;20.466;2023-03-13T02:05:04;53.20;;;20.58;;
66179;SDS011;52986;44.028;20.466;2023-03-13T02:10:28;50.35;;;20.25;;
66179;SDS011;52986;44.028;20.466;2023-03-13T02:12:55;49.85;;;19.10;;
66179;SDS011;52986;44.028;20.466;2023-03-13T02:15:22;51.05;;;20.83;;
66179;SDS011;52986;44.028;20.466;2023-03-13T02:17:49;49.33;;;19.48;;
66179;SDS011;52986;44.028;20.466;2023-03-13T02:20:17;57.40;;;21.85;;
66179;SDS011;52986;44.028;20.466;2023-03-13T02:25:40;56.22;;;22.55;;
66179;SDS011;52986;44.028;20.466;2023-03-13T02:28:18;57.88;;;23.17;;
66179;SDS011;52986;44.028;20.466;2023-03-13T02:30:46;54.38;;;21.98;;
66179;SDS011;52986;44.028;20.466;2023-03-13T02:33:14;53.55;;;21.45;;
66179;SDS011;52986;44.028;20.466;2023-03-13T02:35:40;54.78;;;21.95;;
66179;SDS011;52986;44.028;20.466;2023-03-13T02:38:09;56.92;;;22.38;;
66179;SDS011;52986;44.028;20.466;2023-03-13T02:40:38;53.67;;;20.05;;
66179;SDS011;52986;44.028;20.466;2023-03-13T02:43:08;62.30;;;24.55;;
66179;SDS011;52986;44.028;20.466;2023-03-13T02:46:03;61.10;;;22.50;;
66179;SDS011;52986;44.028;20.466;2023-03-13T02:48:35;59.30;;;22.88;;
66179;SDS011;52986;44.028;20.466;2023-03-13T02:51:04;57.63;;;22.80;;
66179;SDS011;52986;44.028;20.466;2023-03-13T02:53:32;50.55;;;21.15;;
66179;SDS011;52986;44.028;20.466;2023-03-13T02:55:59;53.72;;;20.95;;
66179;SDS011;52986;44.028;20.466;2023-03-13T02:58:24;45.30;;;19.55;;
66179;SDS011;52986;44.028;20.466;2023-03-13T03:00:51;47.67;;;18.50;;
66179;SDS011;52986;44.028;20.466;2023-03-13T03:03:17;50.30;;;20.17;;
66179;SDS011;52986;44.028;20.466;2023-03-13T03:05:42;49.90;;;19.35;;
66179;SDS011;52986;44.028;20.466;2023-03-13T03:08:07;50.72;;;19.27;;
66179;SDS011;52986;44.028;20.466;2023-03-13T03:10:34;52.23;;;21.17;;
66179;SDS011;52986;44.028;20.466;2023-03-13T03:13:01;46.65;;;19.38;;
66179;SDS011;52986;44.028;20.466;2023-03-13T03:15:26;51.25;;;19.30;;
66179;SDS011;52986;44.028;20.466;2023-03-13T03:17:51;49.53;;;19.40;;
66179;SDS011;52986;44.028;20.466;2023-03-13T03:20:17;46.42;;;18.15;;
66179;SDS011;52986;44.028;20.466;2023-03-13T03:22:42;52.13;;;18.95;;
66179;SDS011;52986;44.028;20.466;2023-03-13T03:25:08;49.88;;;19.23;;
66179;SDS011;52986;44.028;20.466;2023-03-13T03:27:33;47.70;;;18.95;;
66179;SDS011;52986;44.028;20.466;2023-03-13T03:30:00;50.70;;;20.08;;
66179;SDS011;52986;44.028;20.466;2023-03-13T03:32:26;48.45;;;19.55;;
66179;SDS011;52986;44.028;20.466;2023-03-13T03:34:51;48.65;;;19.23;;
66179;SDS011;52986;44.028;20.466;2023-03-13T03:37:17;57.53;;;22.17;;
66179;SDS011;52986;44.028;20.466;2023-03-13T03:39:42;58.40;;;23.70;;
66179;SDS011;52986;44.028;20.466;2023-03-13T03:42:08;56.63;;;21.55;;
66179;SDS011;52986;44.028;20.466;2023-03-13T03:44:33;56.30;;;23.13;;
66179;SDS011;52986;44.028;20.466;2023-03-13T03:46:59;53.60;;;23.38;;
66179;SDS011;52986;44.028;20.466;2023-03-13T03:49:24;53.45;;;21.45;;
66179;SDS011;52986;44.028;20.466;2023-03-13T03:51:49;53.40;;;21.27;;
66179;SDS011;52986;44.028;20.466;2023-03-13T03:54:15;49.15;;;20.52;;
66179;SDS011;52986;44.028;20.466;2023-03-13T03:56:40;45.67;;;18.60;;
66179;SDS011;52986;44.028;20.466;2023-03-13T03:59:05;49.20;;;19.55;;
66179;SDS011;52986;44.028;20.466;2023-03-13T04:01:31;41.77;;;17.00;;
66179;SDS011;52986;44.028;20.466;2023-03-13T04:03:56;39.40;;;16.73;;
66179;SDS011;52986;44.028;20.466;2023-03-13T04:06:21;43.35;;;16.90;;
66179;SDS011;52986;44.028;20.466;2023-03-13T04:08:47;42.47;;;16.30;;
66179;SDS011;52986;44.028;20.466;2023-03-13T04:11:12;42.95;;;17.27;;
66179;SDS011;52986;44.028;20.466;2023-03-13T04:13:38;50.35;;;18.35;;
66179;SDS011;52986;44.028;20.466;2023-03-13T04:16:06;47.15;;;18.48;;
66179;SDS011;52986;44.028;20.466;2023-03-13T04:18:32;50.88;;;18.65;;
66179;SDS011;52986;44.028;20.466;2023-03-13T04:21:02;45.63;;;18.02;;
66179;SDS011;52986;44.028;20.466;2023-03-13T04:23:28;47.40;;;17.35;;
66179;SDS011;52986;44.028;20.466;2023-03-13T04:25:54;47.70;;;18.30;;
66179;SDS011;52986;44.028;20.466;2023-03-13T04:28:22;44.47;;;17.58;;
66179;SDS011;52986;44.028;20.466;2023-03-13T04:30:48;46.50;;;18.30;;
66179;SDS011;52986;44.028;20.466;2023-03-13T04:33:13;52.47;;;18.75;;
66179;SDS011;52986;44.028;20.466;2023-03-13T04:35:39;43.60;;;18.00;;
66179;SDS011;52986;44.028;20.466;2023-03-13T04:38:04;68.75;;;24.98;;
66179;SDS011;52986;44.028;20.466;2023-03-13T04:40:29;49.42;;;19.40;;
66179;SDS011;52986;44.028;20.466;2023-03-13T04:42:55;51.67;;;19.23;;
66179;SDS011;52986;44.028;20.466;2023-03-13T04:45:20;48.58;;;18.98;;
66179;SDS011;52986;44.028;20.466;2023-03-13T04:47:46;50.13;;;19.20;;
66179;SDS011;52986;44.028;20.466;2023-03-13T04:50:11;55.60;;;22.08;;
66179;SDS011;52986;44.028;20.466;2023-03-13T04:52:36;49.90;;;18.85;;
66179;SDS011;52986;44.028;20.466;2023-03-13T04:55:02;52.90;;;19.88;;
66179;SDS011;52986;44.028;20.466;2023-03-13T04:57:27;52.30;;;18.77;;
66179;SDS011;52986;44.028;20.466;2023-03-13T04:59:53;55.72;;;21.17;;
66179;SDS011;52986;44.028;20.466;2023-03-13T05:02:18;54.78;;;20.88;;
66179;SDS011;52986;44.028;20.466;2023-03-13T05:04:43;55.42;;;21.67;;
66179;SDS011;52986;44.028;20.466;2023-03-13T05:07:09;62.53;;;22.63;;
66179;SDS011;52986;44.028;20.466;2023-03-13T05:09:34;57.67;;;22.67;;
66179;SDS011;52986;44.028;20.466;2023-03-13T05:12:00;54.38;;;22.90;;
66179;SDS011;52986;44.028;20.466;2023-03-13T05:14:25;67.97;;;25.02;;
66179;SDS011;52986;44.028;20.466;2023-03-13T05:16:51;74.68;;;29.98;;
66179;SDS011;52986;44.028;20.466;2023-03-13T05:19:16;63.83;;;25.67;;
66179;SDS011;52986;44.028;20.466;2023-03-13T05:21:41;69.85;;;23.95;;
66179;SDS011;52986;44.028;20.466;2023-03-13T05:24:07;63.63;;;23.05;;
66179;SDS011;52986;44.028;20.466;2023-03-13T05:26:32;58.55;;;22.73;;
66179;SDS011;52986;44.028;20.466;2023-03-13T05:28:58;51.60;;;19.45;;
66179;SDS011;52986;44.028;20.466;2023-03-13T05:31:23;50.63;;;18.85;;
66179;SDS011;52986;44.028;20.466;2023-03-13T05:33:48;49.80;;;19.30;;
66179;SDS011;52986;44.028;20.466;2023-03-13T05:36:14;46.60;;;18.30;;
66179;SDS011;52986;44.028;20.466;2023-03-13T05:38:39;42.83;;;17.25;;
66179;SDS011;52986;44.028;20.466;2023-03-13T05:41:05;52.67;;;19.70;;
66179;SDS011;52986;44.028;20.466;2023-03-13T05:43:30;46.95;;;17.95;;
66179;SDS011;52986;44.028;20.466;2023-03-13T05:45:55;46.38;;;18.05;;
66179;SDS011;52986;44.028;20.466;2023-03-13T05:48:21;52.22;;;19.02;;
66179;SDS011;52986;44.028;20.466;2023-03-13T05:50:46;58.92;;;19.60;;
66179;SDS011;52986;44.028;20.466;2023-03-13T05:53:11;50.58;;;18.23;;
66179;SDS011;52986;44.028;20.466;2023-03-13T05:55:37;47.88;;;18.77;;
66179;SDS011;52986;44.028;20.466;2023-03-13T05:58:02;46.65;;;17.80;;
66179;SDS011;52986;44.028;20.466;2023-03-13T06:00:28;45.95;;;19.88;;
66179;SDS011;52986;44.028;20.466;2023-03-13T06:02:53;62.78;;;22.08;;
66179;SDS011;52986;44.028;20.466;2023-03-13T06:05:19;53.72;;;21.98;;
66179;SDS011;52986;44.028;20.466;2023-03-13T06:07:44;53.38;;;21.02;;
66179;SDS011;52986;44.028;20.466;2023-03-13T06:10:10;48.47;;;18.60;;
66179;SDS011;52986;44.028;20.466;2023-03-13T06:12:35;53.20;;;20.15;;
66179;SDS011;52986;44.028;20.466;2023-03-13T06:15:02;64.50;;;28.08;;
66179;SDS011;52986;44.028;20.466;2023-03-13T06:17:27;55.60;;;22.10;;
66179;SDS011;52986;44.028;20.466;2023-03-13T06:19:53;58.38;;;23.17;;
66179;SDS011;52986;44.028;20.466;2023-03-13T06:22:18;65.88;;;27.75;;
66179;SDS011;52986;44.028;20.466;2023-03-13T06:24:43;68.55;;;26.52;;
66179;SDS011;52986;44.028;20.466;2023-03-13T06:27:10;69.38;;;25.98;;
66179;SDS011;52986;44.028;20.466;2023-03-13T06:29:36;64.00;;;26.83;;
66179;SDS011;52986;44.028;20.466;2023-03-13T06:32:01;68.65;;;27.88;;
66179;SDS011;52986;44.028;20.466;2023-03-13T06:34:27;63.95;;;26.38;;
66179;SDS011;52986;44.028;20.466;2023-03-13T06:36:52;73.40;;;32.22;;
66179;SDS011;52986;44.028;20.466;2023-03-13T06:39:17;71.45;;;29.60;;
66179;SDS011;52986;44.028;20.466;2023-03-13T06:41:43;68.47;;;31.08;;
66179;SDS011;52986;44.028;20.466;2023-03-13T06:44:08;62.95;;;29.00;;
66179;SDS011;52986;44.028;20.466;2023-03-13T06:46:33;69.40;;;30.80;;
66179;SDS011;52986;44.028;20.466;2023-03-13T06:48:59;64.43;;;29.73;;
66179;SDS011;52986;44.028;20.466;2023-03-13T06:51:28;69.43;;;34.20;;
66179;SDS011;52986;44.028;20.466;2023-03-13T06:53:54;55.53;;;26.48;;
66179;SDS011;52986;44.028;20.466;2023-03-13T06:56:19;59.67;;;27.83;;
66179;SDS011;52986;44.028;20.466;2023-03-13T06:58:46;52.60;;;26.55;;
66179;SDS011;52986;44.028;20.466;2023-03-13T07:01:13;46.50;;;23.17;;
66179;SDS011;52986;44.028;20.466;2023-03-13T07:03:39;50.80;;;23.55;;
66179;SDS011;52986;44.028;20.466;2023-03-13T07:06:05;52.30;;;25.27;;
66179;SDS011;52986;44.028;20.466;2023-03-13T07:08:32;49.75;;;25.23;;
66179;SDS011;52986;44.028;20.466;2023-03-13T07:10:59;56.53;;;30.10;;
66179;SDS011;52986;44.028;20.466;2023-03-13T07:13:26;54.33;;;29.88;;
66179;SDS011;52986;44.028;20.466;2023-03-13T07:15:52;45.20;;;24.80;;
66179;SDS011;52986;44.028;20.466;2023-03-13T07:18:18;44.05;;;22.90;;
66179;SDS011;52986;44.028;20.466;2023-03-13T07:20:44;35.92;;;19.17;;
66179;SDS011;52986;44.028;20.466;2023-03-13T07:23:15;35.03;;;16.80;;
66179;SDS011;52986;44.028;20.466;2023-03-13T07:25:40;34.50;;;18.60;;
66179;SDS011;52986;44.028;20.466;2023-03-13T07:28:06;35.50;;;17.70;;
66179;SDS011;52986;44.028;20.466;2023-03-13T07:30:31;30.17;;;15.87;;
66179;SDS011;52986;44.028;20.466;2023-03-13T07:32:57;27.08;;;15.48;;
66179;SDS011;52986;44.028;20.466;2023-03-13T07:35:22;27.80;;;15.95;;
66179;SDS011;52986;44.028;20.466;2023-03-13T07:37:47;25.27;;;14.82;;
66179;SDS011;52986;44.028;20.466;2023-03-13T07:40:13;32.05;;;19.10;;
66179;SDS011;52986;44.028;20.466;2023-03-13T07:42:39;30.40;;;18.85;;
66179;SDS011;52986;44.028;20.466;2023-03-13T07:45:05;35.97;;;21.98;;
66179;SDS011;52986;44.028;20.466;2023-03-13T07:47:32;38.67;;;22.23;;
66179;SDS011;52986;44.028;20.466;2023-03-13T07:49:58;41.72;;;23.77;;
66179;SDS011;52986;44.028;20.466;2023-03-13T07:52:24;42.17;;;23.40;;
66179;SDS011;52986;44.028;20.466;2023-03-13T07:54:51;36.85;;;20.73;;
66179;SDS011;52986;44.028;20.466;2023-03-13T07:57:17;31.48;;;18.42;;
66179;SDS011;52986;44.028;20.466;2023-03-13T07:59:42;25.20;;;13.95;;
66179;SDS011;52986;44.028;20.466;2023-03-13T08:02:08;29.98;;;15.35;;
66179;SDS011;52986;44.028;20.466;2023-03-13T08:04:40;32.35;;;16.65;;
66179;SDS011;52986;44.028;20.466;2023-03-13T08:07:09;31.25;;;16.90;;
66179;SDS011;52986;44.028;20.466;2023-03-13T08:09:35;31.73;;;18.77;;
66179;SDS011;52986;44.028;20.466;2023-03-13T08:12:00;30.27;;;17.05;;
66179;SDS011;52986;44.028;20.466;2023-03-13T08:14:26;25.85;;;14.60;;
66179;SDS011;52986;44.028;20.466;2023-03-13T08:16:51;27.38;;;15.25;;
66179;SDS011;52986;44.028;20.466;2023-03-13T08:19:17;25.35;;;14.27;;
66179;SDS011;52986;44.028;20.466;2023-03-13T08:21:43;26.38;;;15.40;;
66179;SDS011;52986;44.028;20.466;2023-03-13T08:24:09;25.85;;;15.93;;
66179;SDS011;52986;44.028;20.466;2023-03-13T08:26:37;28.17;;;16.90;;
66179;SDS011;52986;44.028;20.466;2023-03-13T08:29:08;26.65;;;16.02;;
66179;SDS011;52986;44.028;20.466;2023-03-13T08:31:45;26.98;;;16.15;;
66179;SDS011;52986;44.028;20.466;2023-03-13T08:34:12;19.63;;;10.95;;
66179;SDS011;52986;44.028;20.466;2023-03-13T08:36:39;20.02;;;10.55;;
66179;SDS011;52986;44.028;20.466;2023-03-13T08:39:12;20.73;;;11.05;;
66179;SDS011;52986;44.028;20.466;2023-03-13T08:41:42;22.05;;;10.35;;
66179;SDS011;52986;44.028;20.466;2023-03-13T08:44:11;21.77;;;10.18;;
66179;SDS011;52986;44.028;20.466;2023-03-13T08:46:38;18.20;;;10.98;;
66179;SDS011;52986;44.028;20.466;2023-03-13T08:49:05;21.38;;;11.25;;
66179;SDS011;52986;44.028;20.466;2023-03-13T08:51:31;28.90;;;12.77;;
66179;SDS011;52986;44.028;20.466;2023-03-13T08:53:57;20.55;;;11.23;;
66179;SDS011;52986;44.028;20.466;2023-03-13T08:56:23;19.60;;;11.05;;
66179;SDS011;52986;44.028;20.466;2023-03-13T08:58:51;17.65;;;10.13;;
66179;SDS011;52986;44.028;20.466;2023-03-13T09:01:17;18.67;;;9.13;;
66179;SDS011;52986;44.028;20.466;2023-03-13T09:03:44;21.00;;;12.15;;
66179;SDS011;52986;44.028;20.466;2023-03-13T09:06:09;21.65;;;9.98;;
66179;SDS011;52986;44.028;20.466;2023-03-13T09:08:36;17.52;;;10.88;;
66179;SDS011;52986;44.028;20.466;2023-03-13T09:11:10;19.90;;;10.38;;
66179;SDS011;52986;44.028;20.466;2023-03-13T09:13:46;20.65;;;11.82;;
66179;SDS011;52986;44.028;20.466;2023-03-13T09:16:14;17.58;;;10.68;;
66179;SDS011;52986;44.028;20.466;2023-03-13T09:18:41;19.30;;;10.15;;
66179;SDS011;52986;44.028;20.466;2023-03-13T09:21:09;21.27;;;11.75;;
66179;SDS011;52986;44.028;20.466;2023-03-13T09:23:37;19.13;;;8.63;;
66179;SDS011;52986;44.028;20.466;2023-03-13T09:26:03;15.02;;;8.45;;
66179;SDS011;52986;44.028;20.466;2023-03-13T09:28:30;16.73;;;8.80;;
66179;SDS011;52986;44.028;20.466;2023-03-13T09:31:04;17.88;;;7.97;;
66179;SDS011;52986;44.028;20.466;2023-03-13T09:33:31;14.43;;;7.85;;
66179;SDS011;52986;44.028;20.466;2023-03-13T09:35:57;13.95;;;7.40;;
66179;SDS011;52986;44.028;20.466;2023-03-13T09:38:22;15.95;;;8.10;;
66179;SDS011;52986;44.028;20.466;2023-03-13T09:40:48;15.80;;;6.90;;
66179;SDS011;52986;44.028;20.466;2023-03-13T09:43:22;9.93;;;5.50;;
66179;SDS011;52986;44.028;20.466;2023-03-13T09:45:57;16.35;;;5.90;;
66179;SDS011;52986;44.028;20.466;2023-03-13T09:50:58;12.35;;;5.10;;
66179;SDS011;52986;44.028;20.466;2023-03-13T09:56:27;11.07;;;5.20;;
66179;SDS011;52986;44.028;20.466;2023-03-13T09:58:59;10.73;;;5.03;;
66179;SDS011;52986;44.028;20.466;2023-03-13T10:01:30;9.38;;;4.53;;
66179;SDS011;52986;44.028;20.466;2023-03-13T10:06:51;17.45;;;5.22;;
66179;SDS011;52986;44.028;20.466;2023-03-13T10:09:18;11.93;;;4.85;;
66179;SDS011;52986;44.028;20.466;2023-03-13T10:14:29;12.68;;;5.63;;
66179;SDS011;52986;44.028;20.466;2023-03-13T10:17:39;8.70;;;4.10;;
66179;SDS011;52986;44.028;20.466;2023-03-13T10:20:24;11.75;;;4.10;;
66179;SDS011;52986;44.028;20.466;2023-03-13T10:23:13;9.35;;;3.95;;
66179;SDS011;52986;44.028;20.466;2023-03-13T10:25:39;7.85;;;3.53;;
66179;SDS011;52986;44.028;20.466;2023-03-13T10:28:07;19.25;;;4.82;;
66179;SDS011;52986;44.028;20.466;2023-03-13T10:30:36;10.98;;;4.50;;
66179;SDS011;52986;44.028;20.466;2023-03-13T10:35:39;11.98;;;4.53;;
66179;SDS011;52986;44.028;20.466;2023-03-13T10:41:00;11.35;;;4.18;;
66179;SDS011;52986;44.028;20.466;2023-03-13T10:43:33;10.85;;;4.00;;
66179;SDS011;52986;44.028;20.466;2023-03-13T10:45:58;10.48;;;4.63;;
66179;SDS011;52986;44.028;20.466;2023-03-13T10:48:26;9.18;;;3.70;;
66179;SDS011;52986;44.028;20.466;2023-03-13T10:50:54;10.05;;;4.35;;
66179;SDS011;52986;44.028;20.466;2023-03-13T10:53:30;15.50;;;4.60;;
66179;SDS011;52986;44.028;20.466;2023-03-13T10:58:43;11.00;;;4.40;;
66179;SDS011;52986;44.028;20.466;2023-03-13T11:03:44;14.20;;;5.00;;
66179;SDS011;52986;44.028;20.466;2023-03-13T11:11:48;8.68;;;3.92;;
66179;SDS011;52986;44.028;20.466;2023-03-13T11:14:21;11.88;;;5.20;;
66179;SDS011;52986;44.028;20.466;2023-03-13T11:16:58;9.80;;;4.03;;
66179;SDS011;52986;44.028;20.466;2023-03-13T11:35:15;8.13;;;3.58;;
66179;SDS011;52986;44.028;20.466;2023-03-13T11:37:46;11.27;;;4.05;;
66179;SDS011;52986;44.028;20.466;2023-03-13T11:40:21;9.35;;;4.00;;
66179;SDS011;52986;44.028;20.466;2023-03-13T11:43:05;9.15;;;4.00;;
66179;SDS011;52986;44.028;20.466;2023-03-13T11:45:49;10.70;;;4.25;;
66179;SDS011;52986;44.028;20.466;2023-03-13T11:56:41;9.00;;;3.88;;
66179;SDS011;52986;44.028;20.466;2023-03-13T12:01:52;12.07;;;4.70;;
66179;SDS011;52986;44.028;20.466;2023-03-13T12:06:50;10.20;;;3.70;;
66179;SDS011;52986;44.028;20.466;2023-03-13T12:09:27;9.77;;;3.67;;
66179;SDS011;52986;44.028;20.466;2023-03-13T12:12:14;8.55;;;3.60;;
66179;SDS011;52986;44.028;20.466;2023-03-13T12:14:52;8.20;;;3.70;;
66179;SDS011;52986;44.028;20.466;2023-03-13T12:20:09;9.50;;;3.50;;
66179;SDS011;52986;44.028;20.466;2023-03-13T12:22:56;10.88;;;3.75;;
66179;SDS011;52986;44.028;20.466;2023-03-13T12:25:38;9.05;;;3.75;;
66179;SDS011;52986;44.028;20.466;2023-03-13T12:28:14;9.30;;;4.20;;
66179;SDS011;52986;44.028;20.466;2023-03-13T12:30:42;11.27;;;4.43;;
66179;SDS011;52986;44.028;20.466;2023-03-13T12:35:45;13.82;;;4.00;;
66179;SDS011;52986;44.028;20.466;2023-03-13T12:38:25;9.88;;;3.67;;
66179;SDS011;52986;44.028;20.466;2023-03-13T12:43:44;10.55;;;3.67;;
66179;SDS011;52986;44.028;20.466;2023-03-13T12:46:25;11.38;;;4.10;;
66179;SDS011;52986;44.028;20.466;2023-03-13T13:01:31;8.50;;;3.17;;
66179;SDS011;52986;44.028;20.466;2023-03-13T13:04:05;11.43;;;3.25;;
66179;SDS011;52986;44.028;20.466;2023-03-13T13:06:53;7.50;;;2.80;;
66179;SDS011;52986;44.028;20.466;2023-03-13T13:09:36;7.63;;;2.80;;
66179;SDS011;52986;44.028;20.466;2023-03-13T13:12:22;11.52;;;4.35;;
66179;SDS011;52986;44.028;20.466;2023-03-13T13:17:17;9.73;;;3.53;;
66179;SDS011;52986;44.028;20.466;2023-03-13T13:20:47;8.07;;;2.65;;
66179;SDS011;52986;44.028;20.466;2023-03-13T13:25:44;9.15;;;3.22;;
66179;SDS011;52986;44.028;20.466;2023-03-13T13:28:18;11.77;;;4.20;;
66179;SDS011;52986;44.028;20.466;2023-03-13T13:35:42;13.55;;;3.33;;
66179;SDS011;52986;44.028;20.466;2023-03-13T13:43:37;7.90;;;2.95;;
66179;SDS011;52986;44.028;20.466;2023-03-13T13:46:23;7.85;;;2.70;;
66179;SDS011;52986;44.028;20.466;2023-03-13T13:51:34;11.13;;;3.10;;
66179;SDS011;52986;44.028;20.466;2023-03-13T13:54:52;7.68;;;2.55;;
66179;SDS011;52986;44.028;20.466;2023-03-13T13:57:14;8.00;;;2.63;;
66179;SDS011;52986;44.028;20.466;2023-03-13T13:59:51;9.98;;;3.03;;
66179;SDS011;52986;44.028;20.466;2023-03-13T14:02:45;11.63;;;3.80;;
66179;SDS011;52986;44.028;20.466;2023-03-13T14:05:25;11.10;;;3.47;;
66179;SDS011;52986;44.028;20.466;2023-03-13T14:08:05;13.02;;;4.72;;
66179;SDS011;52986;44.028;20.466;2023-03-13T14:10:41;13.82;;;5.28;;
66179;SDS011;52986;44.028;20.466;2023-03-13T14:13:14;19.02;;;5.47;;
66179;SDS011;52986;44.028;20.466;2023-03-13T14:15:45;12.70;;;4.68;;
66179;SDS011;52986;44.028;20.466;2023-03-13T14:20:51;9.68;;;3.63;;
66179;SDS011;52986;44.028;20.466;2023-03-13T14:23:36;13.45;;;4.72;;
66179;SDS011;52986;44.028;20.466;2023-03-13T14:28:58;13.95;;;4.68;;
66179;SDS011;52986;44.028;20.466;2023-03-13T14:31:36;11.77;;;4.10;;
66179;SDS011;52986;44.028;20.466;2023-03-13T14:34:04;9.00;;;3.03;;
66179;SDS011;52986;44.028;20.466;2023-03-13T14:36:44;11.52;;;3.90;;
66179;SDS011;52986;44.028;20.466;2023-03-13T14:39:15;9.93;;;3.60;;
66179;SDS011;52986;44.028;20.466;2023-03-13T14:41:43;12.35;;;4.70;;
66179;SDS011;52986;44.028;20.466;2023-03-13T14:44:24;11.23;;;4.47;;
66179;SDS011;52986;44.028;20.466;2023-03-13T14:46:53;12.20;;;5.28;;
66179;SDS011;52986;44.028;20.466;2023-03-13T14:49:24;9.82;;;3.83;;
66179;SDS011;52986;44.028;20.466;2023-03-13T14:52:03;9.70;;;3.85;;
66179;SDS011;52986;44.028;20.466;2023-03-13T14:54:34;14.27;;;4.78;;
66179;SDS011;52986;44.028;20.466;2023-03-13T14:57:02;12.02;;;4.63;;
66179;SDS011;52986;44.028;20.466;2023-03-13T14:59:33;14.18;;;5.40;;
66179;SDS011;52986;44.028;20.466;2023-03-13T15:01:59;18.45;;;6.40;;
66179;SDS011;52986;44.028;20.466;2023-03-13T15:04:47;13.85;;;5.25;;
66179;SDS011;52986;44.028;20.466;2023-03-13T15:07:15;10.48;;;3.70;;
66179;SDS011;52986;44.028;20.466;2023-03-13T15:09:41;16.83;;;5.00;;
66179;SDS011;52986;44.028;20.466;2023-03-13T15:12:20;12.43;;;4.15;;
66179;SDS011;52986;44.028;20.466;2023-03-13T15:14:47;12.45;;;4.57;;
66179;SDS011;52986;44.028;20.466;2023-03-13T15:19:57;12.45;;;3.92;;
66179;SDS011;52986;44.028;20.466;2023-03-13T15:22:24;13.35;;;4.65;;
66179;SDS011;52986;44.028;20.466;2023-03-13T15:24:55;12.88;;;4.43;;
66179;SDS011;52986;44.028;20.466;2023-03-13T15:27:22;13.48;;;4.63;;
66179;SDS011;52986;44.028;20.466;2023-03-13T15:29:49;18.98;;;5.55;;
66179;SDS011;52986;44.028;20.466;2023-03-13T15:32:36;16.23;;;6.97;;
66179;SDS011;52986;44.028;20.466;2023-03-13T15:35:01;17.02;;;6.28;;
66179;SDS011;52986;44.028;20.466;2023-03-13T15:37:35;16.88;;;6.38;;
66179;SDS011;52986;44.028;20.466;2023-03-13T15:40:01;19.73;;;7.25;;
66179;SDS011;52986;44.028;20.466;2023-03-13T15:42:31;15.25;;;5.85;;
66179;SDS011;52986;44.028;20.466;2023-03-13T15:44:56;15.45;;;6.53;;
66179;SDS011;52986;44.028;20.466;2023-03-13T15:47:22;14.02;;;5.45;;
66179;SDS011;52986;44.028;20.466;2023-03-13T15:49:47;14.70;;;6.15;;
66179;SDS011;52986;44.028;20.466;2023-03-13T15:52:15;28.10;;;7.05;;
66179;SDS011;52986;44.028;20.466;2023-03-13T15:54:46;19.38;;;7.45;;
66179;SDS011;52986;44.028;20.466;2023-03-13T15:57:16;17.13;;;6.72;;
66179;SDS011;52986;44.028;20.466;2023-03-13T15:59:43;16.10;;;5.72;;
66179;SDS011;52986;44.028;20.466;2023-03-13T16:02:16;11.77;;;5.03;;
66179;SDS011;52986;44.028;20.466;2023-03-13T16:04:44;11.05;;;4.22;;
66179;SDS011;52986;44.028;20.466;2023-03-13T16:07:14;12.48;;;4.80;;
66179;SDS011;52986;44.028;20.466;2023-03-13T16:09:41;12.75;;;5.00;;
66179;SDS011;52986;44.028;20.466;2023-03-13T16:12:08;13.23;;;4.50;;
66179;SDS011;52986;44.028;20.466;2023-03-13T16:14:34;13.68;;;5.28;;
66179;SDS011;52986;44.028;20.466;2023-03-13T16:17:01;18.35;;;5.75;;